createdAt,value
2017-09-06T08:46:18.142Z,1007.50
2017-09-06T08:46:42.820Z,1007.49
2017-09-06T08:48:37.390Z,1007.54
2017-09-06T08:49:37.833Z,1007.52
2017-09-06T08:51:33.379Z,1007.52
2017-09-06T08:52:33.823Z,1007.47
2017-09-06T08:54:28.448Z,1007.47
2017-09-06T08:55:28.826Z,1007.48
2017-09-06T08:57:23.394Z,1007.41
2017-09-06T08:58:23.830Z,1007.44
2017-09-06T09:00:18.393Z,1007.43
2017-09-06T09:01:18.850Z,1007.42
2017-09-06T09:03:13.404Z,1007.35
2017-09-06T09:04:13.849Z,1007.33
2017-09-06T09:06:08.410Z,1007.30
2017-09-06T09:07:08.851Z,1007.29
2017-09-06T09:09:03.411Z,1007.29
2017-09-06T09:10:03.853Z,1007.31
2017-09-06T09:11:58.415Z,1007.31
2017-09-06T09:12:58.860Z,1007.30
2017-09-06T09:14:54.430Z,1007.23
2017-09-06T09:15:54.842Z,1007.23
2017-09-06T09:17:49.404Z,1007.21
2017-09-06T09:18:49.849Z,1007.27
2017-09-06T09:20:44.458Z,1007.22
2017-09-06T09:21:44.901Z,1007.21
2017-09-06T09:23:39.461Z,1007.20
2017-09-06T09:24:39.903Z,1007.15
2017-09-06T09:26:34.480Z,1007.22
2017-09-06T09:27:34.902Z,1007.20
2017-09-06T09:29:29.474Z,1007.22
2017-09-06T09:30:29.917Z,1007.14
2017-09-06T09:32:24.486Z,1007.10
2017-09-06T09:33:24.929Z,1007.10
2017-09-06T09:35:19.500Z,1007.04
2017-09-06T09:36:19.939Z,1007.06
2017-09-06T09:38:14.527Z,1007.09
2017-09-06T09:39:14.950Z,1007.08
2017-09-06T09:41:09.517Z,1007.09
2017-09-06T09:42:09.954Z,1007.09
2017-09-06T09:44:05.509Z,1007.03
2017-09-06T09:45:05.966Z,1007.05
2017-09-06T09:47:00.515Z,1007.08
2017-09-06T09:48:00.958Z,1007.01
2017-09-06T09:49:56.525Z,1006.99
2017-09-06T09:50:56.945Z,1007.03
2017-09-06T09:52:52.490Z,1007.03
2017-09-06T09:53:52.939Z,1007.04
2017-09-06T09:54:53.376Z,1007.02
2017-09-06T09:55:53.810Z,1006.99
2017-09-06T09:56:54.255Z,1006.94
2017-09-06T09:57:54.690Z,1006.94
2017-09-06T09:58:55.128Z,1006.92
2017-09-06T09:59:55.566Z,1006.89
2017-09-06T10:00:56.002Z,1006.86
2017-09-06T10:01:56.443Z,1006.92
2017-09-06T10:02:56.882Z,1006.92
2017-09-06T10:03:57.324Z,1006.86
2017-09-06T10:04:57.765Z,1006.87
2017-09-06T10:05:58.203Z,1006.86
2017-09-06T10:06:58.672Z,1006.83
2017-09-06T10:07:59.083Z,1006.78
2017-09-06T10:08:59.522Z,1006.80
2017-09-06T10:09:59.995Z,1006.81
2017-09-06T10:11:00.406Z,1006.76
2017-09-06T10:12:00.842Z,1006.76
2017-09-06T10:13:01.287Z,1006.78
2017-09-06T10:14:01.744Z,1006.80
2017-09-06T10:15:02.165Z,1006.79
2017-09-06T10:16:02.607Z,1006.81
2017-09-06T10:17:03.058Z,1006.74
2017-09-06T10:18:03.491Z,1006.73
2017-09-06T10:19:03.925Z,1006.73
2017-09-06T10:20:04.376Z,1006.72
2017-09-06T10:21:04.807Z,1006.78
2017-09-06T10:22:05.246Z,1006.75
2017-09-06T10:23:05.698Z,1006.77
2017-09-06T10:24:06.133Z,1006.74
2017-09-06T10:25:06.572Z,1006.72
2017-09-06T10:26:07.015Z,1006.70
2017-09-06T10:27:07.459Z,1006.69
2017-09-06T10:28:07.900Z,1006.69
2017-09-06T10:29:08.342Z,1006.67
2017-09-06T10:30:08.786Z,1006.67
2017-09-06T10:31:09.225Z,1006.62
2017-09-06T10:32:09.665Z,1006.64
2017-09-06T10:33:10.112Z,1006.58
2017-09-06T10:34:10.547Z,1006.58
2017-09-06T10:35:10.992Z,1006.54
2017-09-06T10:36:11.472Z,1006.50
2017-09-06T10:37:11.878Z,1006.49
2017-09-06T10:38:12.353Z,1006.48
2017-09-06T10:39:12.773Z,1006.43
2017-09-06T10:40:13.205Z,1006.45
2017-09-06T10:41:13.657Z,1006.38
2017-09-06T10:42:14.089Z,1006.34
2017-09-06T10:43:14.533Z,1006.34
2017-09-06T10:44:14.981Z,1006.34
2017-09-06T10:45:15.426Z,1006.28
2017-09-06T10:46:15.875Z,1006.31
2017-09-06T10:47:16.328Z,1006.31
2017-09-06T10:48:16.761Z,1006.29
2017-09-06T10:49:17.204Z,1006.31
2017-09-06T10:50:17.650Z,1006.25
2017-09-06T10:51:18.171Z,1006.23
2017-09-06T10:52:18.529Z,1006.25
2017-09-06T10:53:19.013Z,1006.24
2017-09-06T10:54:19.431Z,1006.21
2017-09-06T10:55:19.880Z,1006.19
2017-09-06T10:56:20.323Z,1006.19
2017-09-06T10:57:20.806Z,1006.20
2017-09-06T10:58:21.234Z,1006.18
2017-09-06T10:59:21.658Z,1006.18
2017-09-06T11:00:22.099Z,1006.20
2017-09-06T11:01:22.541Z,1006.18
2017-09-06T11:02:23.010Z,1006.15
2017-09-06T11:03:23.444Z,1006.12
2017-09-06T11:04:23.889Z,1006.16
2017-09-06T11:05:24.339Z,1006.13
2017-09-06T11:06:24.774Z,1006.09
2017-09-06T11:07:25.214Z,1006.11
2017-09-06T11:08:25.679Z,1006.12
2017-09-06T11:09:26.119Z,1006.09
2017-09-06T11:10:26.562Z,1006.13
2017-09-06T11:11:26.988Z,1006.10
2017-09-06T11:12:27.431Z,1006.13
2017-09-06T11:13:27.933Z,1006.13
2017-09-06T11:14:28.316Z,1006.07
2017-09-06T11:15:28.776Z,1006.10
2017-09-06T11:16:29.202Z,1006.11
2017-09-06T11:17:29.642Z,1006.13
2017-09-06T11:18:30.087Z,1006.14
2017-09-06T11:19:30.530Z,1006.13
2017-09-06T11:20:30.971Z,1006.12
2017-09-06T11:21:31.416Z,1006.09
2017-09-06T11:22:31.866Z,1006.10
2017-09-06T11:23:32.305Z,1006.07
2017-09-06T11:24:32.738Z,1006.05
2017-09-06T11:25:33.182Z,1006.06
2017-09-06T11:26:33.626Z,1006.06
2017-09-06T11:27:34.067Z,1005.98
2017-09-06T11:28:34.512Z,1006.02
2017-09-06T11:29:34.954Z,1006.01
2017-09-06T11:30:35.394Z,1005.98
2017-09-06T11:31:35.928Z,1006.03
2017-09-06T11:32:36.269Z,1006.03
2017-09-06T11:33:36.721Z,1006.03
2017-09-06T11:34:37.166Z,1005.99
2017-09-06T11:35:37.609Z,1006.00
2017-09-06T11:36:38.050Z,1006.02
2017-09-06T11:37:38.493Z,1005.97
2017-09-06T11:38:38.936Z,1005.96
2017-09-06T11:39:39.377Z,1005.98
2017-09-06T11:42:19.682Z,1005.98
2017-09-06T11:43:13.392Z,1005.97
2017-09-06T11:45:07.964Z,1005.97
2017-09-06T11:46:08.413Z,1005.97
2017-09-06T11:48:02.985Z,1005.88
2017-09-06T11:49:03.434Z,1005.92
2017-09-06T11:50:58.014Z,1005.89
2017-09-06T11:51:58.460Z,1005.86
2017-09-06T11:53:53.033Z,1005.80
2017-09-06T11:54:53.486Z,1005.83
2017-09-06T11:56:49.255Z,1005.79
2017-09-06T11:57:49.692Z,1005.77
2017-09-06T11:59:45.243Z,1005.70
2017-09-06T12:00:45.698Z,1005.76
2017-09-06T12:02:41.256Z,1005.70
2017-09-06T12:03:41.705Z,1005.70
2017-09-06T12:05:36.282Z,1005.66
2017-09-06T12:06:36.776Z,1005.61
2017-09-06T12:08:32.291Z,1005.64
2017-09-06T12:09:32.731Z,1005.66
2017-09-06T12:11:27.330Z,1005.56
2017-09-06T12:12:27.763Z,1005.55
2017-09-06T12:14:22.333Z,1005.52
2017-09-06T12:15:22.797Z,1005.52
2017-09-06T12:17:17.363Z,1005.52
2017-09-06T12:18:17.817Z,1005.54
2017-09-06T12:20:13.380Z,1005.54
2017-09-06T12:21:13.834Z,1005.47
2017-09-06T12:23:08.448Z,1005.48
2017-09-06T12:24:08.870Z,1005.44
2017-09-06T12:26:03.449Z,1005.43
2017-09-06T12:27:03.898Z,1005.40
2017-09-06T12:28:58.472Z,1005.39
2017-09-06T12:29:58.925Z,1005.37
2017-09-06T12:31:54.023Z,1005.42
2017-09-06T12:32:54.467Z,1005.41
2017-09-06T12:34:49.138Z,1005.43
2017-09-06T12:35:49.508Z,1005.39
2017-09-06T12:37:44.095Z,1005.32
2017-09-06T12:38:44.542Z,1005.31
2017-09-06T12:40:39.121Z,1005.28
2017-09-06T12:41:39.576Z,1005.29
2017-09-06T12:43:34.155Z,1005.32
2017-09-06T12:44:34.612Z,1005.30
2017-09-06T12:46:29.197Z,1005.32
2017-09-06T12:47:29.647Z,1005.35
2017-09-06T12:49:24.229Z,1005.30
2017-09-06T12:50:24.683Z,1005.26
2017-09-06T12:52:19.257Z,1005.25
2017-09-06T12:53:19.712Z,1005.24
2017-09-06T12:55:14.307Z,1005.23
2017-09-06T12:56:14.748Z,1005.23
2017-09-06T12:58:09.335Z,1005.23
2017-09-06T12:59:09.781Z,1005.17
2017-09-06T13:01:04.397Z,1005.12
2017-09-06T13:02:04.817Z,1005.10
2017-09-06T13:04:00.381Z,1005.06
2017-09-06T13:05:00.825Z,1005.07
2017-09-06T13:06:55.423Z,1005.01
2017-09-06T13:07:55.864Z,1004.95
2017-09-06T13:09:51.425Z,1004.89
2017-09-06T13:10:51.878Z,1004.85
2017-09-06T13:12:46.440Z,1004.83
2017-09-06T13:13:46.892Z,1004.79
2017-09-06T13:15:41.472Z,1004.74
2017-09-06T13:16:41.924Z,1004.69
2017-09-06T13:18:36.497Z,1004.72
2017-09-06T13:19:36.949Z,1004.71
2017-09-06T13:21:31.529Z,1004.66
2017-09-06T13:22:31.993Z,1004.62
2017-09-06T13:24:27.566Z,1004.53
2017-09-06T13:25:28.020Z,1004.53
2017-09-06T13:27:23.674Z,1004.54
2017-09-06T13:28:24.043Z,1004.54
2017-09-06T13:30:18.630Z,1004.54
2017-09-06T13:31:19.075Z,1004.46
2017-09-06T13:33:13.650Z,1004.53
2017-09-06T13:34:14.149Z,1004.51
2017-09-06T13:36:08.684Z,1004.49
2017-09-06T13:37:09.132Z,1004.51
2017-09-06T13:39:03.697Z,1004.54
2017-09-06T13:40:04.153Z,1004.51
2017-09-06T13:41:58.741Z,1004.50
2017-09-06T13:42:59.176Z,1004.48
2017-09-06T13:44:53.752Z,1004.48
2017-09-06T13:45:54.213Z,1004.44
2017-09-06T13:47:48.800Z,1004.42
2017-09-06T13:48:49.233Z,1004.40
2017-09-06T13:50:43.814Z,1004.39
2017-09-06T13:51:44.263Z,1004.41
2017-09-06T13:53:38.839Z,1004.39
2017-09-06T13:54:39.290Z,1004.39
2017-09-06T13:56:33.877Z,1004.33
2017-09-06T13:57:34.323Z,1004.32
2017-09-06T13:59:28.933Z,1004.32
2017-09-06T14:00:29.387Z,1004.31
2017-09-06T14:02:24.941Z,1004.39
2017-09-06T14:03:25.388Z,1004.50
2017-09-06T14:05:19.959Z,1004.55
2017-09-06T14:06:20.418Z,1004.97
2017-09-06T14:08:14.993Z,1004.80
2017-09-06T14:09:15.440Z,1004.93
2017-09-06T14:11:10.019Z,1004.86
2017-09-06T14:12:10.464Z,1004.90
2017-09-06T14:14:05.052Z,1004.79
2017-09-06T14:15:05.545Z,1004.74
2017-09-06T14:17:00.063Z,1004.68
2017-09-06T14:18:00.525Z,1004.63
2017-09-06T14:19:56.593Z,1004.56
2017-09-06T14:20:57.036Z,1004.59
2017-09-06T14:22:51.613Z,1004.59
2017-09-06T14:23:52.048Z,1004.61
2017-09-06T14:25:46.611Z,1004.49
2017-09-06T14:26:47.091Z,1004.48
2017-09-06T14:28:41.621Z,1004.43
2017-09-06T14:29:42.071Z,1004.40
2017-09-06T14:31:36.645Z,1004.34
2017-09-06T14:32:37.094Z,1004.36
2017-09-06T14:34:31.639Z,1004.41
2017-09-06T14:35:32.100Z,1004.40
2017-09-06T14:37:27.635Z,1004.39
2017-09-06T14:38:28.074Z,1004.44
2017-09-06T14:40:22.644Z,1004.45
2017-09-06T14:41:23.083Z,1004.48
2017-09-06T14:43:17.668Z,1004.47
2017-09-06T14:44:18.097Z,1004.44
2017-09-06T14:46:13.644Z,1004.47
2017-09-06T14:47:14.087Z,1004.47
2017-09-06T14:49:08.645Z,1004.53
2017-09-06T14:50:09.091Z,1004.54
2017-09-06T14:52:03.655Z,1004.44
2017-09-06T14:53:04.105Z,1004.45
2017-09-06T14:54:58.660Z,1004.38
2017-09-06T14:55:59.189Z,1004.36
2017-09-06T14:57:53.661Z,1004.42
2017-09-06T14:58:54.109Z,1004.39
2017-09-06T15:00:48.666Z,1004.39
2017-09-06T15:01:49.115Z,1004.39
2017-09-06T15:03:43.703Z,1004.35
2017-09-06T15:04:44.125Z,1004.38
2017-09-06T15:06:38.701Z,1004.41
2017-09-06T15:07:39.160Z,1004.40
2017-09-06T15:09:33.712Z,1004.42
2017-09-06T15:10:34.155Z,1004.45
2017-09-06T15:12:29.707Z,1004.50
2017-09-06T15:13:30.151Z,1004.49
2017-09-06T15:15:25.700Z,1004.50
2017-09-06T15:16:26.141Z,1004.51
2017-09-06T15:18:21.556Z,1004.43
2017-09-06T15:19:22.000Z,1004.47
2017-09-06T15:21:16.621Z,1004.49
2017-09-06T15:22:17.015Z,1004.41
2017-09-06T15:24:12.585Z,1004.56
2017-09-06T15:25:13.034Z,1004.49
2017-09-06T15:27:07.599Z,1004.51
2017-09-06T15:28:08.043Z,1004.51
2017-09-06T15:30:02.619Z,1004.48
2017-09-06T15:31:03.060Z,1004.57
2017-09-06T15:32:57.623Z,1004.54
2017-09-06T15:33:58.072Z,1004.54
2017-09-06T15:35:52.626Z,1004.55
2017-09-06T15:36:53.069Z,1004.60
2017-09-06T15:38:47.664Z,1004.65
2017-09-06T15:39:48.089Z,1004.54
2017-09-06T15:41:42.661Z,1004.63
2017-09-06T15:42:43.096Z,1004.73
2017-09-06T15:44:37.665Z,1004.63
2017-09-06T15:45:38.109Z,1004.67
2017-09-06T15:47:32.666Z,1004.63
2017-09-06T15:48:33.125Z,1004.68
2017-09-06T15:50:27.675Z,1004.63
2017-09-06T15:51:28.112Z,1004.64
2017-09-06T15:53:22.687Z,1004.70
2017-09-06T15:54:23.127Z,1004.71
2017-09-06T15:56:18.669Z,1004.66
2017-09-06T15:57:19.108Z,1004.69
2017-09-06T15:59:14.662Z,1004.65
2017-09-06T16:00:15.102Z,1004.69
2017-09-06T16:02:09.899Z,1004.78
2017-09-06T16:03:10.341Z,1004.81
2017-09-06T16:05:04.911Z,1004.69
2017-09-06T16:06:05.356Z,1004.79
2017-09-06T16:08:00.901Z,1004.74
2017-09-06T16:09:01.341Z,1004.78
2017-09-06T16:10:55.922Z,1004.83
2017-09-06T16:11:56.359Z,1004.81
2017-09-06T16:13:51.932Z,1004.81
2017-09-06T16:14:52.378Z,1004.79
2017-09-06T16:16:46.939Z,1004.75
2017-09-06T16:17:47.482Z,1004.84
2017-09-06T16:19:41.957Z,1004.84
2017-09-06T16:20:42.486Z,1004.87
2017-09-06T16:22:36.983Z,1004.91
2017-09-06T16:23:37.401Z,1004.91
2017-09-06T16:25:31.951Z,1004.82
2017-09-06T16:26:32.402Z,1004.84
2017-09-06T16:28:26.961Z,1004.83
2017-09-06T16:29:27.404Z,1004.84
2017-09-06T16:31:21.969Z,1004.84
2017-09-06T16:32:22.407Z,1004.80
2017-09-06T16:34:17.954Z,1004.82
2017-09-06T16:35:18.410Z,1004.81
2017-09-06T16:37:12.958Z,1004.85
2017-09-06T16:38:13.398Z,1004.88
2017-09-06T16:40:07.964Z,1004.83
2017-09-06T16:41:08.407Z,1004.85
2017-09-06T16:43:06.941Z,1004.86
2017-09-06T16:44:07.385Z,1004.89
2017-09-06T16:45:07.835Z,1004.87
2017-09-06T16:46:08.263Z,1004.90
2017-09-06T16:47:08.696Z,1004.89
2017-09-06T16:48:09.141Z,1004.90
2017-09-06T16:49:09.600Z,1004.94
2017-09-06T16:50:10.009Z,1004.88
2017-09-06T16:51:10.448Z,1004.87
2017-09-06T16:52:10.881Z,1004.92
2017-09-06T16:53:11.323Z,1004.93
2017-09-06T16:54:11.752Z,1004.91
2017-09-06T16:55:12.194Z,1004.88
2017-09-06T16:56:12.630Z,1004.85
2017-09-06T16:57:13.066Z,1004.88
2017-09-06T16:58:13.504Z,1004.88
2017-09-06T16:59:13.939Z,1004.90
2017-09-06T17:00:14.377Z,1004.91
2017-09-06T17:01:14.814Z,1004.98
2017-09-06T17:02:15.248Z,1005.00
2017-09-06T17:03:15.688Z,1004.94
2017-09-06T17:04:16.123Z,1005.04
2017-09-06T17:05:16.554Z,1004.89
2017-09-06T17:06:16.998Z,1005.14
2017-09-06T17:07:17.431Z,1005.14
2017-09-06T17:08:20.732Z,1005.15
2017-09-06T17:09:18.305Z,1005.05
2017-09-06T17:10:18.743Z,1005.21
2017-09-06T17:11:19.174Z,1005.22
2017-09-06T17:12:19.608Z,1005.31
2017-09-06T17:13:20.050Z,1005.40
2017-09-06T17:14:20.483Z,1005.25
2017-09-06T17:15:20.923Z,1005.34
2017-09-06T17:16:21.358Z,1005.24
2017-09-06T17:17:21.790Z,1005.24
2017-09-06T17:18:22.224Z,1005.39
2017-09-06T17:19:22.665Z,1005.34
2017-09-06T17:20:23.101Z,1005.38
2017-09-06T17:21:25.238Z,1005.44
2017-09-06T17:22:26.739Z,1005.47
2017-09-06T17:23:24.407Z,1005.51
2017-09-06T17:24:24.850Z,1005.46
2017-09-06T17:25:27.238Z,1005.42
2017-09-06T17:26:25.719Z,1005.50
2017-09-06T17:27:26.153Z,1005.39
2017-09-06T17:28:26.593Z,1005.52
2017-09-06T17:29:27.024Z,1005.51
2017-09-06T17:30:30.242Z,1005.54
2017-09-06T17:31:27.893Z,1005.57
2017-09-06T17:32:28.334Z,1005.56
2017-09-06T17:33:28.766Z,1005.62
2017-09-06T17:34:29.209Z,1005.67
2017-09-06T17:35:29.645Z,1005.68
2017-09-06T17:36:31.752Z,1005.63
2017-09-06T17:37:30.505Z,1005.77
2017-09-06T17:38:30.940Z,1005.72
2017-09-06T17:39:31.376Z,1005.83
2017-09-06T17:40:31.811Z,1005.76
2017-09-06T17:41:32.254Z,1005.82
2017-09-06T17:42:32.693Z,1006.03
2017-09-06T17:43:33.121Z,1005.88
2017-09-06T17:44:33.553Z,1005.87
2017-09-06T17:45:33.987Z,1005.98
2017-09-06T17:46:34.418Z,1006.02
2017-09-06T17:47:34.852Z,1005.93
2017-09-06T17:48:35.288Z,1006.04
2017-09-06T17:49:35.727Z,1006.04
2017-09-06T17:50:36.159Z,1005.92
2017-09-06T17:51:36.592Z,1005.94
2017-09-06T17:52:37.027Z,1006.00
2017-09-06T17:53:37.461Z,1006.01
2017-09-06T17:54:37.894Z,1005.94
2017-09-06T17:55:38.332Z,1006.07
2017-09-06T17:56:38.775Z,1006.05
2017-09-06T17:57:39.200Z,1006.11
2017-09-06T17:58:39.635Z,1006.12
2017-09-06T17:59:40.067Z,1006.09
2017-09-06T18:00:40.501Z,1006.17
2017-09-06T18:01:40.937Z,1006.24
2017-09-06T18:02:41.373Z,1006.16
2017-09-06T18:03:41.816Z,1006.07
2017-09-06T18:04:42.239Z,1006.00
2017-09-06T18:05:42.684Z,1006.22
2017-09-06T18:06:43.110Z,1006.20
2017-09-06T18:07:43.537Z,1006.27
2017-09-06T18:08:43.977Z,1006.28
2017-09-06T18:09:44.422Z,1006.24
2017-09-06T18:10:44.844Z,1006.25
2017-09-06T18:11:45.273Z,1006.21
2017-09-06T18:12:45.709Z,1006.21
2017-09-06T18:13:46.146Z,1006.27
2017-09-06T18:14:46.580Z,1006.33
2017-09-06T18:15:47.021Z,1006.30
2017-09-06T18:16:47.446Z,1006.36
2017-09-06T18:17:47.889Z,1006.25
2017-09-06T18:18:48.313Z,1006.27
2017-09-06T18:19:48.749Z,1006.41
2017-09-06T18:20:49.195Z,1006.28
2017-09-06T18:21:49.619Z,1006.40
2017-09-06T18:22:50.048Z,1006.35
2017-09-06T18:23:50.506Z,1006.30
2017-09-06T18:24:50.920Z,1006.30
2017-09-06T18:25:51.361Z,1006.36
2017-09-06T18:26:51.794Z,1006.29
2017-09-06T18:27:52.225Z,1006.33
2017-09-06T18:28:52.659Z,1006.39
2017-09-06T18:29:53.113Z,1006.38
2017-09-06T18:30:53.526Z,1006.47
2017-09-06T18:31:53.973Z,1006.45
2017-09-06T18:32:54.397Z,1006.38
2017-09-06T18:33:54.868Z,1006.51
2017-09-06T18:34:55.276Z,1006.39
2017-09-06T18:35:55.708Z,1006.35
2017-09-06T18:36:56.152Z,1006.50
2017-09-06T18:37:56.599Z,1006.45
2017-09-06T18:38:56.997Z,1006.51
2017-09-06T18:39:57.456Z,1006.49
2017-09-06T18:40:57.873Z,1006.54
2017-09-06T18:41:58.299Z,1006.54
2017-09-06T18:42:58.764Z,1006.49
2017-09-06T18:43:59.178Z,1006.55
2017-09-06T18:44:59.635Z,1006.49
2017-09-06T18:46:00.063Z,1006.47
2017-09-06T18:47:00.486Z,1006.54
2017-09-06T18:48:00.920Z,1006.42
2017-09-06T18:49:01.355Z,1006.50
2017-09-06T18:50:01.773Z,1006.42
2017-09-06T18:51:02.253Z,1006.48
2017-09-06T18:52:02.667Z,1006.40
2017-09-06T18:53:03.080Z,1006.45
2017-09-06T18:54:03.520Z,1006.51
2017-09-06T18:55:03.977Z,1006.66
2017-09-06T18:56:04.404Z,1006.43
2017-09-06T18:57:04.832Z,1006.48
2017-09-06T18:58:05.258Z,1006.51
2017-09-06T18:59:05.691Z,1006.52
2017-09-06T19:00:06.144Z,1006.55
2017-09-06T19:01:06.568Z,1006.54
2017-09-06T19:02:07.000Z,1006.50
2017-09-06T19:03:07.463Z,1006.55
2017-09-06T19:04:07.873Z,1006.54
2017-09-06T19:05:08.302Z,1006.52
2017-09-06T19:06:08.728Z,1006.52
2017-09-06T19:07:09.186Z,1006.52
2017-09-06T19:08:09.594Z,1006.53
2017-09-06T19:09:10.037Z,1006.54
2017-09-06T19:10:10.467Z,1006.48
2017-09-06T19:11:10.903Z,1006.51
2017-09-06T19:12:11.332Z,1006.54
2017-09-06T19:13:11.778Z,1006.50
2017-09-06T19:14:12.198Z,1006.47
2017-09-06T19:15:12.640Z,1006.54
2017-09-06T19:16:13.046Z,1006.63
2017-09-06T19:17:13.488Z,1006.54
2017-09-06T19:18:13.919Z,1006.65
2017-09-06T19:19:14.344Z,1006.54
2017-09-06T19:20:14.783Z,1006.62
2017-09-06T19:21:15.234Z,1006.56
2017-09-06T19:22:15.645Z,1006.59
2017-09-06T19:23:16.083Z,1006.58
2017-09-06T19:24:16.508Z,1006.55
2017-09-06T19:25:16.948Z,1006.52
2017-09-06T19:26:17.422Z,1006.54
2017-09-06T19:27:17.811Z,1006.57
2017-09-06T19:28:18.249Z,1006.62
2017-09-06T19:29:18.681Z,1006.63
2017-09-06T19:30:19.112Z,1006.62
2017-09-06T19:31:19.546Z,1006.63
2017-09-06T19:32:19.978Z,1006.69
2017-09-06T19:33:20.413Z,1006.76
2017-09-06T19:34:20.847Z,1006.71
2017-09-06T19:35:21.282Z,1006.69
2017-09-06T19:36:21.709Z,1006.75
2017-09-06T19:37:22.184Z,1006.72
2017-09-06T19:38:22.581Z,1006.74
2017-09-06T19:39:23.011Z,1006.74
2017-09-06T19:40:23.439Z,1006.75
2017-09-06T19:41:23.893Z,1006.79
2017-09-06T19:42:24.319Z,1006.75
2017-09-06T19:43:24.742Z,1006.81
2017-09-06T19:44:25.198Z,1006.77
2017-09-06T19:45:25.623Z,1006.84
2017-09-06T19:46:26.039Z,1006.88
2017-09-06T19:47:26.487Z,1006.74
2017-09-06T19:48:26.933Z,1006.78
2017-09-06T19:49:27.366Z,1006.86
2017-09-06T19:50:27.789Z,1006.80
2017-09-06T19:51:28.205Z,1006.83
2017-09-06T19:52:28.642Z,1006.86
2017-09-06T19:53:29.077Z,1006.89
2017-09-06T19:54:29.506Z,1006.79
2017-09-06T19:55:29.937Z,1006.84
2017-09-06T19:56:30.395Z,1006.76
2017-09-06T19:57:30.845Z,1006.91
2017-09-06T19:58:31.247Z,1006.91
2017-09-06T19:59:31.695Z,1006.93
2017-09-06T20:00:32.143Z,1006.80
2017-09-06T20:01:32.550Z,1006.88
2017-09-06T20:02:32.965Z,1006.82
2017-09-06T20:03:33.485Z,1006.82
2017-09-06T20:04:33.854Z,1006.85
2017-09-06T20:05:34.268Z,1006.91
2017-09-06T20:06:34.717Z,1006.85
2017-09-06T20:07:35.139Z,1006.81
2017-09-06T20:08:35.589Z,1006.91
2017-09-06T20:09:36.000Z,1006.81
2017-09-06T20:10:36.471Z,1006.79
2017-09-06T20:11:36.861Z,1006.88
2017-09-06T20:12:37.292Z,1006.84
2017-09-06T20:13:37.723Z,1006.80
2017-09-06T20:14:38.162Z,1006.76
2017-09-06T20:15:38.593Z,1006.84
2017-09-06T20:16:39.052Z,1006.83
2017-09-06T20:17:39.454Z,1006.80
2017-09-06T20:18:39.885Z,1006.65
2017-09-06T20:19:40.333Z,1006.69
2017-09-06T20:20:40.758Z,1006.70
2017-09-06T20:21:41.185Z,1006.58
2017-09-06T20:22:41.614Z,1006.70
2017-09-06T20:23:42.050Z,1006.70
2017-09-06T20:24:42.483Z,1006.68
2017-09-06T20:25:42.920Z,1006.57
2017-09-06T20:26:43.348Z,1006.70
2017-09-06T20:27:43.786Z,1006.61
2017-09-06T20:28:44.222Z,1006.60
2017-09-06T20:29:44.651Z,1006.61
2017-09-06T20:30:45.081Z,1006.64
2017-09-06T20:31:45.511Z,1006.61
2017-09-06T20:32:45.949Z,1006.58
2017-09-06T20:33:46.380Z,1006.57
2017-09-06T20:34:46.807Z,1006.65
2017-09-06T20:35:47.238Z,1006.62
2017-09-06T20:36:47.671Z,1006.63
2017-09-06T20:37:48.105Z,1006.62
2017-09-06T20:38:48.541Z,1006.64
2017-09-06T20:39:49.043Z,1006.61
2017-09-06T20:40:49.406Z,1006.50
2017-09-06T20:41:49.841Z,1006.65
2017-09-06T20:42:50.265Z,1006.65
2017-09-06T20:43:50.699Z,1006.52
2017-09-06T20:44:51.130Z,1006.52
2017-09-06T20:45:51.566Z,1006.60
2017-09-06T20:46:51.997Z,1006.52
2017-09-06T20:47:52.424Z,1006.60
2017-09-06T20:48:52.859Z,1006.59
2017-09-06T20:49:53.299Z,1006.60
2017-09-06T20:50:53.728Z,1006.61
2017-09-06T20:51:54.158Z,1006.53
2017-09-06T20:52:54.641Z,1006.67
2017-09-06T20:53:55.024Z,1006.58
2017-09-06T20:54:55.450Z,1006.52
2017-09-06T20:55:55.886Z,1006.65
2017-09-06T20:56:56.318Z,1006.55
2017-09-06T20:57:56.749Z,1006.63
2017-09-06T20:58:57.183Z,1006.62
2017-09-06T20:59:57.612Z,1006.63
2017-09-06T21:00:58.044Z,1006.69
2017-09-06T21:01:58.481Z,1006.62
2017-09-06T21:02:58.914Z,1006.64
2017-09-06T21:03:59.342Z,1006.68
2017-09-06T21:04:59.772Z,1006.63
2017-09-06T21:06:00.213Z,1006.58
2017-09-06T21:07:00.641Z,1006.67
2017-09-06T21:08:01.076Z,1006.64
2017-09-06T21:09:01.517Z,1006.65
2017-09-06T21:10:01.941Z,1006.60
2017-09-06T21:11:02.369Z,1006.66
2017-09-06T21:12:02.800Z,1006.59
2017-09-06T21:13:03.236Z,1006.68
2017-09-06T21:14:03.669Z,1006.69
2017-09-06T21:15:04.107Z,1006.72
2017-09-06T21:16:04.537Z,1006.62
2017-09-06T21:17:04.965Z,1006.60
2017-09-06T21:18:05.402Z,1006.73
2017-09-06T21:19:05.825Z,1006.64
2017-09-06T21:20:06.262Z,1006.67
2017-09-06T21:21:06.691Z,1006.65
2017-09-06T21:22:07.128Z,1006.79
2017-09-06T21:23:07.557Z,1006.72
2017-09-06T21:24:07.995Z,1006.80
2017-09-06T21:25:08.428Z,1006.77
2017-09-06T21:26:08.863Z,1006.88
2017-09-06T21:27:09.290Z,1006.72
2017-09-06T21:28:09.725Z,1006.72
2017-09-06T21:29:10.159Z,1006.76
2017-09-06T21:30:10.590Z,1006.73
2017-09-06T21:31:11.025Z,1006.80
2017-09-06T21:32:11.453Z,1006.84
2017-09-06T21:33:11.886Z,1006.78
2017-09-06T21:34:12.323Z,1006.77
2017-09-06T21:35:12.750Z,1006.88
2017-09-06T21:36:13.181Z,1006.86
2017-09-06T21:37:13.619Z,1006.86
2017-09-06T21:38:14.053Z,1006.77
2017-09-06T21:39:14.496Z,1006.80
2017-09-06T21:40:14.917Z,1006.83
2017-09-06T21:41:15.351Z,1006.80
2017-09-06T21:42:15.781Z,1006.84
2017-09-06T21:43:16.226Z,1006.88
2017-09-06T21:44:16.646Z,1006.80
2017-09-06T21:45:17.075Z,1006.82
2017-09-06T21:46:17.513Z,1006.91
2017-09-06T21:47:17.942Z,1006.87
2017-09-06T21:48:18.376Z,1006.90
2017-09-06T21:49:18.810Z,1006.86
2017-09-06T21:50:19.245Z,1006.87
2017-09-06T21:51:19.676Z,1006.93
2017-09-06T21:52:20.115Z,1006.87
2017-09-06T21:53:20.538Z,1006.84
2017-09-06T21:54:20.973Z,1006.82
2017-09-06T21:55:21.416Z,1006.85
2017-09-06T21:56:21.840Z,1006.96
2017-09-06T21:57:22.270Z,1006.83
2017-09-06T21:58:22.702Z,1006.79
2017-09-06T21:59:23.132Z,1006.84
2017-09-06T22:00:23.564Z,1006.72
2017-09-06T22:01:23.997Z,1006.86
2017-09-06T22:02:24.435Z,1006.77
2017-09-06T22:03:24.871Z,1006.86
2017-09-06T22:04:25.301Z,1006.86
2017-09-06T22:05:25.736Z,1006.91
2017-09-06T22:06:26.163Z,1006.89
2017-09-06T22:07:26.593Z,1006.82
2017-09-06T22:08:27.030Z,1006.95
2017-09-06T22:09:27.465Z,1006.84
2017-09-06T22:10:27.896Z,1006.90
2017-09-06T22:11:28.332Z,1006.94
2017-09-06T22:12:28.755Z,1006.93
2017-09-06T22:13:29.194Z,1007.02
2017-09-06T22:14:29.622Z,1007.00
2017-09-06T22:15:30.051Z,1006.97
2017-09-06T22:16:30.488Z,1006.92
2017-09-06T22:17:30.919Z,1006.90
2017-09-06T22:18:31.354Z,1007.02
2017-09-06T22:19:31.786Z,1006.94
2017-09-06T22:20:32.226Z,1006.97
2017-09-06T22:21:32.679Z,1006.95
2017-09-06T22:22:33.089Z,1007.00
2017-09-06T22:23:33.520Z,1007.05
2017-09-06T22:24:33.949Z,1007.05
2017-09-06T22:25:34.380Z,1006.95
2017-09-06T22:26:34.819Z,1007.00
2017-09-06T22:27:35.247Z,1006.99
2017-09-06T22:28:35.684Z,1007.06
2017-09-06T22:29:36.109Z,1007.02
2017-09-06T22:30:36.540Z,1006.97
2017-09-06T22:31:36.974Z,1007.01
2017-09-06T22:32:37.412Z,1007.01
2017-09-06T22:33:37.841Z,1006.94
2017-09-06T22:34:38.273Z,1007.00
2017-09-06T22:35:38.732Z,1007.04
2017-09-06T22:36:39.139Z,1007.01
2017-09-06T22:37:39.571Z,1007.05
2017-09-06T22:38:39.997Z,1006.92
2017-09-06T22:39:40.435Z,1006.95
2017-09-06T22:40:40.866Z,1007.03
2017-09-06T22:41:41.298Z,1007.03
2017-09-06T22:42:41.737Z,1007.06
2017-09-06T22:43:42.163Z,1007.07
2017-09-06T22:44:42.595Z,1007.01
2017-09-06T22:45:43.020Z,1006.99
2017-09-06T22:46:43.460Z,1007.00
2017-09-06T22:47:44.044Z,1006.99
2017-09-06T22:48:44.328Z,1007.02
2017-09-06T22:49:44.753Z,1007.04
2017-09-06T22:50:45.195Z,1007.04
2017-09-06T22:51:45.619Z,1007.07